ペトロパブロフスク・カムチャツキー の空港の天気 - METARとTAF

ペトロパブロフスク・カムチャツキー空港 ( UHPP / PKC ) - ロシア ペトロパブロフスク・カムチャツキー
飛行場実況気象(Metar)
観測時間07/16 17:00 MAGT (07/16 06:00 UTC)
風向・風速南南東 7m/s
視程10km以上
天気現象
少しの雲 雲底高度 1010m
気温15℃
湿度82%
気圧1013hPa
METARUHPP 160600Z 16007MPS 9999 FEW033 15/12 Q1013 R34L/CLRD70 NOSIG RMK QFE756/1009
過去の天気等 Google飛行場航空写真 Wunderground天気予報

過去48時間のMETAR

飛行場予報(TAF)
発表時間: 7/16 15:55 MAGT (7/16 04:55 UTC)
予報対象時間: 16日17時 MAGT ~ 17日23時 MAGT
風向・風速南 3m/s 瞬間風速 8m/s
視程10km以上
全天の8割程度の雲 雲底高度 760m
16日17時 MAGT ~ 16日21時 MAGT に一時的に
全天を覆う雲 雲底高度 150m
16日21時 MAGT ~ 17日7時 MAGT に一時的に
視程700m
天気現象
全天を覆う雲 鉛直視程 60m
17日7時 MAGT ~ 17日11時 MAGT に一時的に
全天を覆う雲 雲底高度 180m
17日11時 MAGT から
風向・風速南南東 3m/s 瞬間風速 12m/s
視程10km以上
全天の8割程度の雲 雲底高度 1220m
17日20時 MAGT ~ 17日23時 MAGT に一時的に
視程3100m
天気現象もや
全天の8割程度の雲 雲底高度 150m
TAF UHPP 160455Z 1606/1712 18003G08MPS 9999 BKN025
TEMPO 1606/1610 OVC005
TEMPO 1610/1620 0700 FG VV002
TEMPO 1620/1624 OVC006
FM170000 16003G12MPS 9999 BKN040
TEMPO 1709/1712 3100 BR BKN005